sensor_id;sensor_type;location;lat;lon;timestamp;pressure;altitude;pressure_sealevel;temperature;humidity
16255;BME280;8235;52.198;9.904;2022-10-16T00:00:35;100335.97;;;14.31;82.34
16255;BME280;8235;52.198;9.904;2022-10-16T00:03:02;100347.81;;;14.28;81.89
16255;BME280;8235;52.198;9.904;2022-10-16T00:05:28;100344.66;;;14.23;81.99
16255;BME280;8235;52.198;9.904;2022-10-16T00:07:55;100342.59;;;14.15;81.53
16255;BME280;8235;52.198;9.904;2022-10-16T00:10:23;100346.66;;;14.10;81.87
16255;BME280;8235;52.198;9.904;2022-10-16T00:12:50;100348.84;;;14.05;81.60
16255;BME280;8235;52.198;9.904;2022-10-16T00:15:16;100342.28;;;13.98;82.11
16255;BME280;8235;52.198;9.904;2022-10-16T00:17:43;100338.44;;;13.90;81.93
16255;BME280;8235;52.198;9.904;2022-10-16T00:20:09;100352.06;;;13.87;82.73
16255;BME280;8235;52.198;9.904;2022-10-16T00:22:38;100355.09;;;13.83;82.79
16255;BME280;8235;52.198;9.904;2022-10-16T00:25:05;100353.53;;;13.80;83.22
16255;BME280;8235;52.198;9.904;2022-10-16T00:27:34;100350.41;;;13.75;82.89
16255;BME280;8235;52.198;9.904;2022-10-16T00:30:00;100349.06;;;13.70;83.44
16255;BME280;8235;52.198;9.904;2022-10-16T00:32:27;100353.06;;;13.64;83.34
16255;BME280;8235;52.198;9.904;2022-10-16T00:34:54;100358.09;;;13.58;83.64
16255;BME280;8235;52.198;9.904;2022-10-16T00:37:21;100363.91;;;13.51;84.39
16255;BME280;8235;52.198;9.904;2022-10-16T00:39:48;100359.66;;;13.49;84.96
16255;BME280;8235;52.198;9.904;2022-10-16T00:42:15;100378.38;;;13.49;85.56
16255;BME280;8235;52.198;9.904;2022-10-16T00:44:49;100371.22;;;13.49;85.84
16255;BME280;8235;52.198;9.904;2022-10-16T00:47:21;100369.16;;;13.53;86.34
16255;BME280;8235;52.198;9.904;2022-10-16T00:49:50;100366.25;;;13.56;86.63
16255;BME280;8235;52.198;9.904;2022-10-16T00:52:17;100366.97;;;13.58;87.33
16255;BME280;8235;52.198;9.904;2022-10-16T00:54:46;100369.53;;;13.60;87.54
16255;BME280;8235;52.198;9.904;2022-10-16T00:57:13;100375.72;;;13.60;87.64
16255;BME280;8235;52.198;9.904;2022-10-16T00:59:41;100373.63;;;13.64;87.92
16255;BME280;8235;52.198;9.904;2022-10-16T01:02:11;100381.53;;;13.65;87.93
16255;BME280;8235;52.198;9.904;2022-10-16T01:04:40;100380.56;;;13.66;88.51
16255;BME280;8235;52.198;9.904;2022-10-16T01:07:12;100374.13;;;13.69;88.51
16255;BME280;8235;52.198;9.904;2022-10-16T01:09:48;100378.38;;;13.71;88.53
16255;BME280;8235;52.198;9.904;2022-10-16T01:12:23;100371.94;;;13.74;88.77
16255;BME280;8235;52.198;9.904;2022-10-16T01:14:54;100379.97;;;13.74;88.88
16255;BME280;8235;52.198;9.904;2022-10-16T01:17:28;100378.88;;;13.76;89.09
16255;BME280;8235;52.198;9.904;2022-10-16T01:20:07;100366.22;;;13.78;89.16
16255;BME280;8235;52.198;9.904;2022-10-16T01:22:43;100368.75;;;13.80;89.40
16255;BME280;8235;52.198;9.904;2022-10-16T01:25:20;100370.44;;;13.81;89.44
16255;BME280;8235;52.198;9.904;2022-10-16T01:27:50;100373.97;;;13.81;89.60
16255;BME280;8235;52.198;9.904;2022-10-16T01:30:18;100378.34;;;13.82;90.10
16255;BME280;8235;52.198;9.904;2022-10-16T01:32:50;100380.06;;;13.83;90.35
16255;BME280;8235;52.198;9.904;2022-10-16T01:35:25;100372.03;;;13.83;90.46
16255;BME280;8235;52.198;9.904;2022-10-16T01:37:56;100377.13;;;13.86;90.13
16255;BME280;8235;52.198;9.904;2022-10-16T01:40:27;100379.81;;;13.86;90.57
16255;BME280;8235;52.198;9.904;2022-10-16T01:42:59;100383.47;;;13.85;90.58
16255;BME280;8235;52.198;9.904;2022-10-16T01:45:28;100390.50;;;13.86;90.43
16255;BME280;8235;52.198;9.904;2022-10-16T01:47:58;100391.63;;;13.84;90.25
16255;BME280;8235;52.198;9.904;2022-10-16T01:50:29;100402.44;;;13.82;90.20
16255;BME280;8235;52.198;9.904;2022-10-16T01:52:58;100401.47;;;13.83;90.53
16255;BME280;8235;52.198;9.904;2022-10-16T01:55:29;100403.41;;;13.81;90.54
16255;BME280;8235;52.198;9.904;2022-10-16T01:57:59;100391.72;;;13.82;90.38
16255;BME280;8235;52.198;9.904;2022-10-16T02:00:29;100404.38;;;13.80;90.62
16255;BME280;8235;52.198;9.904;2022-10-16T02:02:57;100394.66;;;13.79;90.59
16255;BME280;8235;52.198;9.904;2022-10-16T02:05:28;100407.34;;;13.77;90.81
16255;BME280;8235;52.198;9.904;2022-10-16T02:07:56;100410.97;;;13.76;90.73
16255;BME280;8235;52.198;9.904;2022-10-16T02:10:23;100411.22;;;13.73;90.57
16255;BME280;8235;52.198;9.904;2022-10-16T02:12:56;100412.94;;;13.74;90.46
16255;BME280;8235;52.198;9.904;2022-10-16T02:15:26;100414.13;;;13.70;90.45
16255;BME280;8235;52.198;9.904;2022-10-16T02:17:52;100415.13;;;13.69;90.46
16255;BME280;8235;52.198;9.904;2022-10-16T02:20:25;100425.22;;;13.66;90.41
16255;BME280;8235;52.198;9.904;2022-10-16T02:22:54;100428.00;;;13.64;90.29
16255;BME280;8235;52.198;9.904;2022-10-16T02:25:25;100433.63;;;13.61;90.51
16255;BME280;8235;52.198;9.904;2022-10-16T02:27:55;100438.13;;;13.61;90.13
16255;BME280;8235;52.198;9.904;2022-10-16T02:30:27;100433.00;;;13.58;90.32
16255;BME280;8235;52.198;9.904;2022-10-16T02:32:56;100442.97;;;13.55;90.23
16255;BME280;8235;52.198;9.904;2022-10-16T02:35:25;100436.91;;;13.53;90.62
16255;BME280;8235;52.198;9.904;2022-10-16T02:37:54;100432.63;;;13.51;90.35
16255;BME280;8235;52.198;9.904;2022-10-16T02:40:22;100432.88;;;13.48;90.31
16255;BME280;8235;52.198;9.904;2022-10-16T02:42:51;100428.59;;;13.45;90.42
16255;BME280;8235;52.198;9.904;2022-10-16T02:45:18;100431.53;;;13.42;90.68
16255;BME280;8235;52.198;9.904;2022-10-16T02:47:46;100424.59;;;13.40;90.78
16255;BME280;8235;52.198;9.904;2022-10-16T02:50:13;100424.72;;;13.38;90.81
16255;BME280;8235;52.198;9.904;2022-10-16T02:52:40;100421.44;;;13.35;90.51
16255;BME280;8235;52.198;9.904;2022-10-16T02:55:08;100426.78;;;13.35;91.16
16255;BME280;8235;52.198;9.904;2022-10-16T02:57:35;100419.97;;;13.31;91.34
16255;BME280;8235;52.198;9.904;2022-10-16T03:00:03;100420.81;;;13.31;91.22
16255;BME280;8235;52.198;9.904;2022-10-16T03:02:30;100419.22;;;13.29;91.17
16255;BME280;8235;52.198;9.904;2022-10-16T03:04:58;100423.00;;;13.26;91.72
16255;BME280;8235;52.198;9.904;2022-10-16T03:07:24;100411.72;;;13.23;91.15
16255;BME280;8235;52.198;9.904;2022-10-16T03:09:51;100413.66;;;13.20;91.64
16255;BME280;8235;52.198;9.904;2022-10-16T03:12:18;100414.63;;;13.19;91.36
16255;BME280;8235;52.198;9.904;2022-10-16T03:14:44;100411.09;;;13.19;91.88
16255;BME280;8235;52.198;9.904;2022-10-16T03:17:11;100411.22;;;13.17;92.26
16255;BME280;8235;52.198;9.904;2022-10-16T03:19:38;100415.91;;;13.14;92.23
16255;BME280;8235;52.198;9.904;2022-10-16T03:22:06;100411.53;;;13.13;92.11
16255;BME280;8235;52.198;9.904;2022-10-16T03:24:32;100417.94;;;13.10;92.06
16255;BME280;8235;52.198;9.904;2022-10-16T03:26:59;100420.91;;;13.07;92.37
16255;BME280;8235;52.198;9.904;2022-10-16T03:29:26;100413.97;;;13.05;92.25
16255;BME280;8235;52.198;9.904;2022-10-16T03:31:54;100422.09;;;13.03;92.72
16255;BME280;8235;52.198;9.904;2022-10-16T03:34:21;100426.69;;;13.01;93.00
16255;BME280;8235;52.198;9.904;2022-10-16T03:36:48;100430.47;;;12.99;92.74
16255;BME280;8235;52.198;9.904;2022-10-16T03:39:15;100418.91;;;12.98;92.76
16255;BME280;8235;52.198;9.904;2022-10-16T03:41:42;100420.00;;;12.96;93.25
16255;BME280;8235;52.198;9.904;2022-10-16T03:44:09;100434.22;;;12.96;93.11
16255;BME280;8235;52.198;9.904;2022-10-16T03:46:35;100438.81;;;12.94;93.42
16255;BME280;8235;52.198;9.904;2022-10-16T03:49:02;100436.25;;;12.93;93.29
16255;BME280;8235;52.198;9.904;2022-10-16T03:51:28;100426.53;;;12.92;93.48
16255;BME280;8235;52.198;9.904;2022-10-16T03:53:55;100433.72;;;12.91;93.83
16255;BME280;8235;52.198;9.904;2022-10-16T03:56:23;100424.13;;;12.89;94.17
16255;BME280;8235;52.198;9.904;2022-10-16T03:58:50;100425.22;;;12.86;93.84
16255;BME280;8235;52.198;9.904;2022-10-16T04:01:16;100420.84;;;12.85;94.09
16255;BME280;8235;52.198;9.904;2022-10-16T04:03:43;100435.91;;;12.86;94.10
16255;BME280;8235;52.198;9.904;2022-10-16T04:06:09;100430.56;;;12.86;94.51
16255;BME280;8235;52.198;9.904;2022-10-16T04:08:36;100428.84;;;12.85;94.62
16255;BME280;8235;52.198;9.904;2022-10-16T04:11:04;100418.16;;;12.85;94.93
16255;BME280;8235;52.198;9.904;2022-10-16T04:13:32;100420.72;;;12.86;94.99
16255;BME280;8235;52.198;9.904;2022-10-16T04:15:59;100429.59;;;12.87;95.19
16255;BME280;8235;52.198;9.904;2022-10-16T04:18:25;100435.16;;;12.84;95.48
16255;BME280;8235;52.198;9.904;2022-10-16T04:20:53;100451.19;;;12.84;95.28
16255;BME280;8235;52.198;9.904;2022-10-16T04:23:19;100444.25;;;12.81;95.35
16255;BME280;8235;52.198;9.904;2022-10-16T04:25:46;100452.28;;;12.81;95.47
16255;BME280;8235;52.198;9.904;2022-10-16T04:28:12;100454.09;;;12.81;95.96
16255;BME280;8235;52.198;9.904;2022-10-16T04:30:40;100462.22;;;12.79;95.94
16255;BME280;8235;52.198;9.904;2022-10-16T04:33:08;100459.66;;;12.78;96.02
16255;BME280;8235;52.198;9.904;2022-10-16T04:35:35;100457.00;;;12.78;96.02
16255;BME280;8235;52.198;9.904;2022-10-16T04:38:01;100457.97;;;12.77;96.19
16255;BME280;8235;52.198;9.904;2022-10-16T04:40:29;100458.81;;;12.77;96.61
16255;BME280;8235;52.198;9.904;2022-10-16T04:42:57;100457.09;;;12.76;96.57
16255;BME280;8235;52.198;9.904;2022-10-16T04:45:24;100447.28;;;12.77;96.88
16255;BME280;8235;52.198;9.904;2022-10-16T04:47:52;100445.44;;;12.77;96.73
16255;BME280;8235;52.198;9.904;2022-10-16T04:50:18;100452.63;;;12.77;96.98
16255;BME280;8235;52.198;9.904;2022-10-16T04:52:45;100451.75;;;12.76;96.87
16255;BME280;8235;52.198;9.904;2022-10-16T04:55:11;100450.91;;;12.76;97.06
16255;BME280;8235;52.198;9.904;2022-10-16T04:57:38;100462.44;;;12.76;97.44
16255;BME280;8235;52.198;9.904;2022-10-16T05:00:05;100464.38;;;12.74;97.35
16255;BME280;8235;52.198;9.904;2022-10-16T05:02:33;100470.69;;;12.73;97.62
16255;BME280;8235;52.198;9.904;2022-10-16T05:05:01;100454.66;;;12.73;97.66
16255;BME280;8235;52.198;9.904;2022-10-16T05:07:27;100471.53;;;12.74;97.89
16255;BME280;8235;52.198;9.904;2022-10-16T05:09:54;100484.91;;;12.74;97.57
16255;BME280;8235;52.198;9.904;2022-10-16T05:12:20;100477.75;;;12.74;97.91
16255;BME280;8235;52.198;9.904;2022-10-16T05:14:46;100465.22;;;12.75;98.29
16255;BME280;8235;52.198;9.904;2022-10-16T05:17:13;100469.63;;;12.76;98.06
16255;BME280;8235;52.198;9.904;2022-10-16T05:19:39;100476.66;;;12.77;98.02
16255;BME280;8235;52.198;9.904;2022-10-16T05:22:07;100471.31;;;12.77;98.16
16255;BME280;8235;52.198;9.904;2022-10-16T05:24:33;100475.81;;;12.76;98.64
16255;BME280;8235;52.198;9.904;2022-10-16T05:27:00;100479.34;;;12.77;98.75
16255;BME280;8235;52.198;9.904;2022-10-16T05:29:26;100482.13;;;12.75;98.63
16255;BME280;8235;52.198;9.904;2022-10-16T05:31:53;100484.91;;;12.74;98.40
16255;BME280;8235;52.198;9.904;2022-10-16T05:34:20;100489.53;;;12.72;98.55
16255;BME280;8235;52.198;9.904;2022-10-16T05:36:46;100497.66;;;12.70;98.24
16255;BME280;8235;52.198;9.904;2022-10-16T05:39:15;100503.88;;;12.71;98.12
16255;BME280;8235;52.198;9.904;2022-10-16T05:41:42;100501.41;;;12.68;98.19
16255;BME280;8235;52.198;9.904;2022-10-16T05:44:08;100504.31;;;12.65;98.14
16255;BME280;8235;52.198;9.904;2022-10-16T05:46:35;100505.38;;;12.62;98.04
16255;BME280;8235;52.198;9.904;2022-10-16T05:49:01;100501.13;;;12.60;97.98
16255;BME280;8235;52.198;9.904;2022-10-16T05:51:28;100508.41;;;12.58;98.11
16255;BME280;8235;52.198;9.904;2022-10-16T05:53:54;100507.53;;;12.57;98.23
16255;BME280;8235;52.198;9.904;2022-10-16T05:56:22;100502.31;;;12.56;98.24
16255;BME280;8235;52.198;9.904;2022-10-16T05:58:48;100506.69;;;12.57;98.38
16255;BME280;8235;52.198;9.904;2022-10-16T06:01:17;100517.38;;;12.57;98.44
16255;BME280;8235;52.198;9.904;2022-10-16T06:03:44;100527.94;;;12.58;98.46
16255;BME280;8235;52.198;9.904;2022-10-16T06:06:12;100535.09;;;12.58;98.68
16255;BME280;8235;52.198;9.904;2022-10-16T06:08:39;100528.81;;;12.59;98.62
16255;BME280;8235;52.198;9.904;2022-10-16T06:11:07;100531.38;;;12.60;99.07
16255;BME280;8235;52.198;9.904;2022-10-16T06:13:36;100528.47;;;12.63;99.02
16255;BME280;8235;52.198;9.904;2022-10-16T06:16:03;100525.81;;;12.63;98.79
16255;BME280;8235;52.198;9.904;2022-10-16T06:18:30;100526.03;;;12.60;98.29
16255;BME280;8235;52.198;9.904;2022-10-16T06:20:57;100527.84;;;12.60;98.04
16255;BME280;8235;52.198;9.904;2022-10-16T06:23:24;100537.88;;;12.56;97.83
16255;BME280;8235;52.198;9.904;2022-10-16T06:25:51;100542.50;;;12.54;98.09
16255;BME280;8235;52.198;9.904;2022-10-16T06:28:18;100557.69;;;12.54;97.90
16255;BME280;8235;52.198;9.904;2022-10-16T06:30:46;100547.72;;;12.56;98.34
16255;BME280;8235;52.198;9.904;2022-10-16T06:33:12;100562.56;;;12.60;98.36
16255;BME280;8235;52.198;9.904;2022-10-16T06:35:39;100562.13;;;12.66;99.03
16255;BME280;8235;52.198;9.904;2022-10-16T06:38:05;100558.88;;;12.73;99.59
16255;BME280;8235;52.198;9.904;2022-10-16T06:40:32;100546.66;;;12.82;99.85
16255;BME280;8235;52.198;9.904;2022-10-16T06:42:58;100553.28;;;12.89;99.77
16255;BME280;8235;52.198;9.904;2022-10-16T06:45:25;100576.84;;;12.95;100.00
16255;BME280;8235;52.198;9.904;2022-10-16T06:47:53;100565.84;;;13.00;100.00
16255;BME280;8235;52.198;9.904;2022-10-16T06:50:19;100566.25;;;13.06;100.00
16255;BME280;8235;52.198;9.904;2022-10-16T06:52:46;100577.19;;;13.14;100.00
16255;BME280;8235;52.198;9.904;2022-10-16T06:55:12;100570.47;;;13.22;100.00
16255;BME280;8235;52.198;9.904;2022-10-16T06:57:39;100577.88;;;13.29;100.00
16255;BME280;8235;52.198;9.904;2022-10-16T07:00:07;100584.25;;;13.39;100.00
16255;BME280;8235;52.198;9.904;2022-10-16T07:02:33;100585.38;;;13.48;100.00
16255;BME280;8235;52.198;9.904;2022-10-16T07:05:01;100586.50;;;13.57;100.00
16255;BME280;8235;52.198;9.904;2022-10-16T07:07:28;100579.34;;;13.68;100.00
16255;BME280;8235;52.198;9.904;2022-10-16T07:09:54;100584.00;;;13.77;100.00
16255;BME280;8235;52.198;9.904;2022-10-16T07:12:21;100576.94;;;13.87;100.00
16255;BME280;8235;52.198;9.904;2022-10-16T07:14:47;100584.97;;;13.99;99.67
16255;BME280;8235;52.198;9.904;2022-10-16T07:17:13;100602.16;;;14.07;99.09
16255;BME280;8235;52.198;9.904;2022-10-16T07:19:40;100600.56;;;14.16;98.96
16255;BME280;8235;52.198;9.904;2022-10-16T07:22:08;100591.94;;;14.23;98.11
16255;BME280;8235;52.198;9.904;2022-10-16T07:24:34;100602.91;;;14.32;97.58
16255;BME280;8235;52.198;9.904;2022-10-16T07:27:01;100603.13;;;14.40;96.74
16255;BME280;8235;52.198;9.904;2022-10-16T07:29:27;100607.19;;;14.45;95.92
16255;BME280;8235;52.198;9.904;2022-10-16T07:31:54;100604.72;;;14.53;95.60
16255;BME280;8235;52.198;9.904;2022-10-16T07:34:20;100608.38;;;14.64;94.76
16255;BME280;8235;52.198;9.904;2022-10-16T07:36:48;100620.78;;;14.76;93.58
16255;BME280;8235;52.198;9.904;2022-10-16T07:39:16;100630.03;;;14.83;92.55
16255;BME280;8235;52.198;9.904;2022-10-16T07:41:43;100628.56;;;14.90;92.36
16255;BME280;8235;52.198;9.904;2022-10-16T07:44:09;100624.28;;;14.99;91.23
16255;BME280;8235;52.198;9.904;2022-10-16T07:46:36;100616.31;;;15.08;90.64
16255;BME280;8235;52.198;9.904;2022-10-16T07:49:03;100628.00;;;15.18;89.63
16255;BME280;8235;52.198;9.904;2022-10-16T07:51:29;100639.53;;;15.30;89.29
16255;BME280;8235;52.198;9.904;2022-10-16T07:53:56;100641.06;;;15.44;88.67
16255;BME280;8235;52.198;9.904;2022-10-16T07:56:24;100651.69;;;15.56;87.43
16255;BME280;8235;52.198;9.904;2022-10-16T07:58:51;100647.34;;;15.65;85.94
16255;BME280;8235;52.198;9.904;2022-10-16T08:01:18;100650.25;;;15.73;84.33
16255;BME280;8235;52.198;9.904;2022-10-16T08:03:46;100643.34;;;15.80;83.44
16255;BME280;8235;52.198;9.904;2022-10-16T08:06:13;100661.91;;;15.83;83.20
16255;BME280;8235;52.198;9.904;2022-10-16T08:08:40;100652.59;;;15.87;82.49
16255;BME280;8235;52.198;9.904;2022-10-16T08:11:06;100658.44;;;15.92;82.44
16255;BME280;8235;52.198;9.904;2022-10-16T08:13:34;100655.22;;;15.98;81.99
16255;BME280;8235;52.198;9.904;2022-10-16T08:16:01;100665.44;;;16.05;81.32
16255;BME280;8235;52.198;9.904;2022-10-16T08:18:28;100680.44;;;16.07;81.01
16255;BME280;8235;52.198;9.904;2022-10-16T08:20:56;100689.97;;;16.11;80.53
16255;BME280;8235;52.198;9.904;2022-10-16T08:23:23;100685.16;;;16.15;80.08
16255;BME280;8235;52.198;9.904;2022-10-16T08:25:51;100686.72;;;16.17;80.33
16255;BME280;8235;52.198;9.904;2022-10-16T08:28:18;100692.69;;;16.21;80.17
16255;BME280;8235;52.198;9.904;2022-10-16T08:30:46;100688.75;;;16.25;79.58
16255;BME280;8235;52.198;9.904;2022-10-16T08:33:12;100695.72;;;16.27;79.59
16255;BME280;8235;52.198;9.904;2022-10-16T08:35:39;100697.00;;;16.33;79.67
16255;BME280;8235;52.198;9.904;2022-10-16T08:38:05;100697.91;;;16.43;79.99
16255;BME280;8235;52.198;9.904;2022-10-16T08:40:34;100692.72;;;16.51;79.54
16255;BME280;8235;52.198;9.904;2022-10-16T08:43:17;100694.38;;;16.63;79.73
16255;BME280;8235;52.198;9.904;2022-10-16T08:46:06;100694.84;;;16.78;79.15
16255;BME280;8235;52.198;9.904;2022-10-16T08:48:44;100691.19;;;16.89;78.29
16255;BME280;8235;52.198;9.904;2022-10-16T08:51:18;100700.16;;;16.99;77.77
16255;BME280;8235;52.198;9.904;2022-10-16T08:53:50;100701.03;;;17.09;76.24
16255;BME280;8235;52.198;9.904;2022-10-16T08:56:19;100706.72;;;17.16;75.57
16255;BME280;8235;52.198;9.904;2022-10-16T08:58:46;100699.66;;;17.15;74.82
16255;BME280;8235;52.198;9.904;2022-10-16T09:01:17;100704.75;;;17.18;74.26
16255;BME280;8235;52.198;9.904;2022-10-16T09:03:59;100710.00;;;17.19;74.63
16255;BME280;8235;52.198;9.904;2022-10-16T09:06:42;100703.47;;;17.22;74.07
16255;BME280;8235;52.198;9.904;2022-10-16T09:09:34;100715.09;;;17.22;73.18
16255;BME280;8235;52.198;9.904;2022-10-16T09:12:07;100709.56;;;17.24;72.65
16255;BME280;8235;52.198;9.904;2022-10-16T09:14:52;100728.00;;;17.28;72.68
16255;BME280;8235;52.198;9.904;2022-10-16T09:17:32;100719.94;;;17.38;71.54
16255;BME280;8235;52.198;9.904;2022-10-16T09:20:13;100717.81;;;17.42;71.40
16255;BME280;8235;52.198;9.904;2022-10-16T09:22:44;100715.84;;;17.44;70.77
16255;BME280;8235;52.198;9.904;2022-10-16T09:25:12;100731.13;;;17.43;70.44
16255;BME280;8235;52.198;9.904;2022-10-16T09:27:40;100730.88;;;17.46;70.43
16255;BME280;8235;52.198;9.904;2022-10-16T09:30:13;100723.81;;;17.55;70.53
16255;BME280;8235;52.198;9.904;2022-10-16T09:32:42;100729.31;;;17.63;69.97
16255;BME280;8235;52.198;9.904;2022-10-16T09:35:14;100733.59;;;17.75;69.93
16255;BME280;8235;52.198;9.904;2022-10-16T09:37:42;100729.09;;;17.85;69.71
16255;BME280;8235;52.198;9.904;2022-10-16T09:40:13;100738.00;;;17.95;68.75
16255;BME280;8235;52.198;9.904;2022-10-16T09:42:39;100748.81;;;18.05;68.49
16255;BME280;8235;52.198;9.904;2022-10-16T09:45:20;100749.06;;;18.12;67.54
16255;BME280;8235;52.198;9.904;2022-10-16T09:47:49;100742.53;;;18.14;66.68
16255;BME280;8235;52.198;9.904;2022-10-16T09:50:22;100753.19;;;18.16;66.76
16255;BME280;8235;52.198;9.904;2022-10-16T09:52:49;100751.19;;;18.18;66.20
16255;BME280;8235;52.198;9.904;2022-10-16T09:55:17;100760.72;;;18.22;66.15
16255;BME280;8235;52.198;9.904;2022-10-16T09:57:50;100756.72;;;18.26;65.54
16255;BME280;8235;52.198;9.904;2022-10-16T10:00:17;100754.91;;;18.26;65.67
16255;BME280;8235;52.198;9.904;2022-10-16T10:02:44;100769.63;;;18.32;65.04
16255;BME280;8235;52.198;9.904;2022-10-16T10:05:20;100773.03;;;18.34;65.17
16255;BME280;8235;52.198;9.904;2022-10-16T10:07:54;100768.63;;;18.33;64.10
16255;BME280;8235;52.198;9.904;2022-10-16T10:10:23;100778.84;;;18.39;64.86
16255;BME280;8235;52.198;9.904;2022-10-16T10:12:50;100780.81;;;18.47;65.00
16255;BME280;8235;52.198;9.904;2022-10-16T10:15:17;100759.50;;;18.53;64.22
16255;BME280;8235;52.198;9.904;2022-10-16T10:17:48;100774.16;;;18.60;63.91
16255;BME280;8235;52.198;9.904;2022-10-16T10:20:24;100768.00;;;18.68;63.17
16255;BME280;8235;52.198;9.904;2022-10-16T10:22:51;100778.81;;;18.68;62.21
16255;BME280;8235;52.198;9.904;2022-10-16T10:25:29;100774.81;;;18.72;62.00
16255;BME280;8235;52.198;9.904;2022-10-16T10:31:08;100777.38;;;18.73;60.33
16255;BME280;8235;52.198;9.904;2022-10-16T10:33:43;100787.88;;;18.77;60.64
16255;BME280;8235;52.198;9.904;2022-10-16T10:36:28;100794.69;;;18.81;60.19
16255;BME280;8235;52.198;9.904;2022-10-16T10:38:58;100790.28;;;18.80;60.16
16255;BME280;8235;52.198;9.904;2022-10-16T10:44:44;100791.75;;;19.01;60.65
16255;BME280;8235;52.198;9.904;2022-10-16T10:47:19;100804.38;;;19.11;60.19
16255;BME280;8235;52.198;9.904;2022-10-16T10:49:57;100799.06;;;19.19;60.16
16255;BME280;8235;52.198;9.904;2022-10-16T10:52:37;100792.78;;;19.28;59.64
16255;BME280;8235;52.198;9.904;2022-10-16T10:55:17;100805.16;;;19.30;58.93
16255;BME280;8235;52.198;9.904;2022-10-16T10:58:03;100805.53;;;19.35;58.84
16255;BME280;8235;52.198;9.904;2022-10-16T11:00:39;100802.69;;;19.37;57.74
16255;BME280;8235;52.198;9.904;2022-10-16T11:03:13;100814.50;;;19.36;57.31
16255;BME280;8235;52.198;9.904;2022-10-16T11:05:49;100814.25;;;19.29;56.82
16255;BME280;8235;52.198;9.904;2022-10-16T11:08:19;100812.13;;;19.23;56.37
16255;BME280;8235;52.198;9.904;2022-10-16T11:10:53;100814.59;;;19.17;56.70
16255;BME280;8235;52.198;9.904;2022-10-16T11:13:28;100809.63;;;19.12;56.96
16255;BME280;8235;52.198;9.904;2022-10-16T11:15:59;100815.34;;;19.09;56.99
16255;BME280;8235;52.198;9.904;2022-10-16T11:18:32;100817.31;;;19.07;56.95
16255;BME280;8235;52.198;9.904;2022-10-16T11:21:04;100806.09;;;19.02;56.94
16255;BME280;8235;52.198;9.904;2022-10-16T11:23:39;100806.81;;;19.04;56.73
16255;BME280;8235;52.198;9.904;2022-10-16T11:26:13;100807.25;;;18.99;56.15
16255;BME280;8235;52.198;9.904;2022-10-16T11:28:45;100814.50;;;18.99;56.64
16255;BME280;8235;52.198;9.904;2022-10-16T11:31:16;100815.06;;;19.02;56.63
16255;BME280;8235;52.198;9.904;2022-10-16T11:33:48;100824.84;;;19.03;56.07
16255;BME280;8235;52.198;9.904;2022-10-16T11:36:19;100831.09;;;19.04;55.87
16255;BME280;8235;52.198;9.904;2022-10-16T11:38:53;100825.84;;;19.02;55.67
16255;BME280;8235;52.198;9.904;2022-10-16T11:41:27;100827.00;;;19.00;55.87
16255;BME280;8235;52.198;9.904;2022-10-16T11:44:09;100826.00;;;19.01;55.71
16255;BME280;8235;52.198;9.904;2022-10-16T11:46:40;100832.41;;;19.00;55.26
16255;BME280;8235;52.198;9.904;2022-10-16T11:49:14;100841.19;;;19.02;55.22
16255;BME280;8235;52.198;9.904;2022-10-16T11:51:45;100842.91;;;19.03;54.80
16255;BME280;8235;52.198;9.904;2022-10-16T11:54:20;100843.47;;;19.06;54.62
16255;BME280;8235;52.198;9.904;2022-10-16T11:56:50;100839.63;;;19.09;54.18
16255;BME280;8235;52.198;9.904;2022-10-16T11:59:24;100837.63;;;19.11;54.03
16255;BME280;8235;52.198;9.904;2022-10-16T12:02:15;100841.75;;;19.15;53.67
16255;BME280;8235;52.198;9.904;2022-10-16T12:04:47;100841.44;;;19.18;53.63
16255;BME280;8235;52.198;9.904;2022-10-16T12:07:19;100848.94;;;19.24;54.16
16255;BME280;8235;52.198;9.904;2022-10-16T12:09:50;100849.06;;;19.32;53.69
16255;BME280;8235;52.198;9.904;2022-10-16T12:12:24;100846.22;;;19.34;53.66
16255;BME280;8235;52.198;9.904;2022-10-16T12:14:59;100848.44;;;19.38;53.47
16255;BME280;8235;52.198;9.904;2022-10-16T12:17:33;100851.56;;;19.43;53.60
16255;BME280;8235;52.198;9.904;2022-10-16T12:20:12;100849.44;;;19.47;53.50
16255;BME280;8235;52.198;9.904;2022-10-16T12:22:48;100842.16;;;19.48;53.40
16255;BME280;8235;52.198;9.904;2022-10-16T12:25:21;100849.28;;;19.49;53.08
16255;BME280;8235;52.198;9.904;2022-10-16T12:27:55;100849.16;;;19.50;53.04
16255;BME280;8235;52.198;9.904;2022-10-16T12:30:24;100855.28;;;19.52;52.73
16255;BME280;8235;52.198;9.904;2022-10-16T12:32:55;100852.38;;;19.54;52.81
16255;BME280;8235;52.198;9.904;2022-10-16T12:35:24;100854.78;;;19.57;52.75
16255;BME280;8235;52.198;9.904;2022-10-16T12:37:52;100855.50;;;19.59;53.08
16255;BME280;8235;52.198;9.904;2022-10-16T12:40:29;100848.94;;;19.61;52.87
16255;BME280;8235;52.198;9.904;2022-10-16T12:42:56;100851.50;;;19.63;52.98
16255;BME280;8235;52.198;9.904;2022-10-16T12:45:28;100855.06;;;19.63;52.36
16255;BME280;8235;52.198;9.904;2022-10-16T12:47:56;100860.75;;;19.60;52.59
16255;BME280;8235;52.198;9.904;2022-10-16T12:50:32;100857.19;;;19.60;52.25
16255;BME280;8235;52.198;9.904;2022-10-16T12:52:59;100860.91;;;19.59;52.00
16255;BME280;8235;52.198;9.904;2022-10-16T12:55:33;100875.97;;;19.61;52.35
16255;BME280;8235;52.198;9.904;2022-10-16T12:58:13;100866.00;;;19.62;52.35
16255;BME280;8235;52.198;9.904;2022-10-16T13:00:45;100869.41;;;19.64;52.55
16255;BME280;8235;52.198;9.904;2022-10-16T13:03:33;100879.38;;;19.63;52.55
16255;BME280;8235;52.198;9.904;2022-10-16T13:06:15;100880.53;;;19.61;52.02
16255;BME280;8235;52.198;9.904;2022-10-16T13:08:58;100883.22;;;19.61;51.98
16255;BME280;8235;52.198;9.904;2022-10-16T13:11:48;100879.53;;;19.62;52.10
16255;BME280;8235;52.198;9.904;2022-10-16T13:14:36;100891.88;;;19.64;52.13
16255;BME280;8235;52.198;9.904;2022-10-16T13:17:12;100885.34;;;19.67;52.07
16255;BME280;8235;52.198;9.904;2022-10-16T13:19:46;100890.59;;;19.68;51.50